createdAt,value
2022-11-06T00:00:21.149Z,7.19
2022-11-06T00:03:03.233Z,7.21
2022-11-06T00:05:53.263Z,7.20
2022-11-06T00:08:33.674Z,7.17
2022-11-06T00:11:12.061Z,7.18
2022-11-06T00:13:45.459Z,7.19
2022-11-06T00:16:17.788Z,7.16
2022-11-06T00:18:50.745Z,7.11
2022-11-06T00:21:26.622Z,7.07
2022-11-06T00:24:01.083Z,7.02
2022-11-06T00:26:34.723Z,6.98
2022-11-06T00:29:07.801Z,7.00
2022-11-06T00:31:40.443Z,6.99
2022-11-06T00:34:13.301Z,6.98
2022-11-06T00:36:45.520Z,7.01
2022-11-06T00:39:17.989Z,7.02
2022-11-06T00:41:50.189Z,6.96
2022-11-06T00:44:22.974Z,6.93
2022-11-06T00:46:55.103Z,6.90
2022-11-06T00:49:28.666Z,6.85
2022-11-06T00:52:01.327Z,6.80
2022-11-06T00:54:33.744Z,6.75
2022-11-06T00:57:07.120Z,6.74
2022-11-06T00:59:39.285Z,6.79
2022-11-06T01:02:11.699Z,6.76
2022-11-06T01:04:44.362Z,6.71
2022-11-06T01:07:16.633Z,6.71
2022-11-06T01:09:48.943Z,6.72
2022-11-06T01:12:21.159Z,6.73
2022-11-06T01:14:53.503Z,6.74
2022-11-06T01:17:26.089Z,6.74
2022-11-06T01:19:58.241Z,6.67
2022-11-06T01:22:30.436Z,6.58
2022-11-06T01:25:03.043Z,6.50
2022-11-06T01:27:35.491Z,6.45
2022-11-06T01:30:09.896Z,6.43
2022-11-06T01:32:42.182Z,6.51
2022-11-06T01:35:14.373Z,6.52
2022-11-06T01:37:47.002Z,6.51
2022-11-06T01:40:19.345Z,6.54
2022-11-06T01:42:51.553Z,6.60
2022-11-06T01:45:32.687Z,6.63
2022-11-06T01:48:05.433Z,6.57
2022-11-06T01:50:38.361Z,6.51
2022-11-06T01:53:10.915Z,6.46
2022-11-06T01:55:46.567Z,6.41
2022-11-06T01:58:21.885Z,6.38
2022-11-06T02:00:54.184Z,6.37
2022-11-06T02:03:26.916Z,6.44
2022-11-06T02:06:00.385Z,6.48
2022-11-06T02:08:33.168Z,6.45
2022-11-06T02:11:06.002Z,6.42
2022-11-06T02:13:44.776Z,6.38
2022-11-06T02:16:23.164Z,6.32
2022-11-06T02:19:13.867Z,6.26
2022-11-06T02:22:12.224Z,6.18
2022-11-06T02:25:09.890Z,6.10
2022-11-06T02:27:45.529Z,6.04
2022-11-06T02:30:19.554Z,6.02
2022-11-06T02:32:59.220Z,6.07
2022-11-06T02:35:36.175Z,6.04
2022-11-06T02:38:12.589Z,6.03
2022-11-06T02:40:50.496Z,6.04
2022-11-06T02:43:25.611Z,6.02
2022-11-06T02:46:03.486Z,5.95
2022-11-06T02:48:42.514Z,5.90
2022-11-06T02:51:18.878Z,5.85
2022-11-06T02:53:51.742Z,5.80
2022-11-06T02:56:28.521Z,5.75
2022-11-06T02:59:04.551Z,5.74
2022-11-06T03:01:40.418Z,5.78
2022-11-06T03:04:17.798Z,5.73
2022-11-06T03:06:55.600Z,5.68
2022-11-06T03:09:33.261Z,5.66
2022-11-06T03:12:18.032Z,5.64
2022-11-06T03:14:58.798Z,5.65
2022-11-06T03:17:44.102Z,5.64
2022-11-06T03:20:19.320Z,5.65
2022-11-06T03:22:58.275Z,5.61
2022-11-06T03:25:35.968Z,5.59
2022-11-06T03:28:13.459Z,5.58
2022-11-06T03:30:51.489Z,5.56
2022-11-06T03:33:31.596Z,5.53
2022-11-06T03:36:10.151Z,5.55
2022-11-06T03:38:46.258Z,5.55
2022-11-06T03:41:23.976Z,5.54
2022-11-06T03:44:00.802Z,5.54
2022-11-06T03:46:34.300Z,5.55
2022-11-06T03:49:10.723Z,5.54
2022-11-06T03:51:46.520Z,5.49
2022-11-06T03:54:23.373Z,5.45
2022-11-06T03:57:01.854Z,5.40
2022-11-06T03:59:39.338Z,5.36
2022-11-06T04:02:14.381Z,5.35
2022-11-06T04:04:52.838Z,5.34
2022-11-06T04:07:29.508Z,5.41
2022-11-06T04:10:22.203Z,5.43
2022-11-06T04:13:14.370Z,5.44
2022-11-06T04:15:53.251Z,5.45
2022-11-06T04:18:25.417Z,5.45
2022-11-06T04:21:23.112Z,5.43
2022-11-06T04:24:26.941Z,5.43
2022-11-06T04:27:12.729Z,5.40
2022-11-06T04:30:00.107Z,5.38
2022-11-06T04:32:41.877Z,5.36
2022-11-06T04:35:22.615Z,5.36
2022-11-06T04:38:02.522Z,5.44
2022-11-06T04:40:46.541Z,5.46
2022-11-06T04:43:31.482Z,5.46
2022-11-06T04:46:07.600Z,5.49
2022-11-06T04:48:40.993Z,5.52
2022-11-06T04:51:15.102Z,5.50
2022-11-06T04:53:50.469Z,5.48
2022-11-06T04:56:29.419Z,5.46
2022-11-06T04:59:02.665Z,5.46
2022-11-06T05:01:35.322Z,5.48
2022-11-06T05:04:07.973Z,5.46
2022-11-06T05:06:40.201Z,5.43
2022-11-06T05:09:12.413Z,5.43
2022-11-06T05:11:44.556Z,5.39
2022-11-06T05:14:16.725Z,5.37
2022-11-06T05:16:48.912Z,5.34
2022-11-06T05:19:21.065Z,5.31
2022-11-06T05:22:11.047Z,5.25
2022-11-06T05:24:43.191Z,5.20
2022-11-06T05:27:15.448Z,5.18
2022-11-06T05:29:47.706Z,5.16
2022-11-06T05:32:19.875Z,5.13
2022-11-06T05:34:52.048Z,5.09
2022-11-06T05:37:24.850Z,5.07
2022-11-06T05:39:57.070Z,5.11
2022-11-06T05:42:29.365Z,5.10
2022-11-06T05:45:01.516Z,5.09
2022-11-06T05:47:34.031Z,5.10
2022-11-06T05:50:07.022Z,5.12
2022-11-06T05:52:39.807Z,5.14
2022-11-06T05:55:15.055Z,5.14
2022-11-06T05:57:47.572Z,5.11
2022-11-06T06:00:21.546Z,5.05
2022-11-06T06:02:53.862Z,4.99
2022-11-06T06:05:26.028Z,4.93
2022-11-06T06:07:58.242Z,4.88
2022-11-06T06:10:30.413Z,4.87
2022-11-06T06:13:02.700Z,4.92
2022-11-06T06:15:35.082Z,4.94
2022-11-06T06:18:08.373Z,4.96
2022-11-06T06:20:40.951Z,5.00
2022-11-06T06:23:13.504Z,5.04
2022-11-06T06:25:45.800Z,5.10
2022-11-06T06:28:17.974Z,5.16
2022-11-06T06:30:50.291Z,5.17
2022-11-06T06:33:22.509Z,5.18
2022-11-06T06:35:55.142Z,5.19
2022-11-06T06:38:27.406Z,5.19
2022-11-06T06:41:03.926Z,5.21
2022-11-06T06:43:37.103Z,5.24
2022-11-06T06:46:09.802Z,5.34
2022-11-06T06:48:41.906Z,5.37
2022-11-06T06:51:14.071Z,5.43
2022-11-06T06:53:46.347Z,5.47
2022-11-06T06:56:18.554Z,5.52
2022-11-06T06:58:50.926Z,5.58
2022-11-06T07:01:23.705Z,5.59
2022-11-06T07:04:01.345Z,5.59
2022-11-06T07:06:36.107Z,5.61
2022-11-06T07:09:08.557Z,5.64
2022-11-06T07:11:40.850Z,5.67
2022-11-06T07:14:13.507Z,5.75
2022-11-06T07:16:51.078Z,5.87
2022-11-06T07:19:25.781Z,5.93
2022-11-06T07:21:58.098Z,5.96
2022-11-06T07:24:30.423Z,5.95
2022-11-06T07:27:02.618Z,5.96
2022-11-06T07:29:34.914Z,5.97
2022-11-06T07:32:11.055Z,5.94
2022-11-06T07:34:43.430Z,5.96
2022-11-06T07:37:15.590Z,6.02
2022-11-06T07:39:47.810Z,6.08
2022-11-06T07:42:19.991Z,6.13
2022-11-06T07:45:02.365Z,6.16
2022-11-06T07:47:34.708Z,6.27
2022-11-06T07:50:08.125Z,6.31
2022-11-06T07:52:40.273Z,6.42
2022-11-06T07:55:13.108Z,6.54
2022-11-06T07:57:45.278Z,6.66
2022-11-06T08:00:18.371Z,6.78
2022-11-06T08:02:53.983Z,6.87
2022-11-06T08:05:26.388Z,6.97
2022-11-06T08:08:00.477Z,7.08
2022-11-06T08:10:32.645Z,7.18
2022-11-06T08:13:04.840Z,7.23
2022-11-06T08:15:38.239Z,7.25
2022-11-06T08:18:12.615Z,7.33
2022-11-06T08:20:45.077Z,7.37
2022-11-06T08:23:17.302Z,7.46
2022-11-06T08:25:49.437Z,7.59
2022-11-06T08:28:21.715Z,7.70
2022-11-06T08:30:54.384Z,7.76
2022-11-06T08:33:27.274Z,7.80
2022-11-06T08:36:01.702Z,7.85
2022-11-06T08:38:34.042Z,7.88
2022-11-06T08:41:09.960Z,7.94
2022-11-06T08:43:42.564Z,8.04
2022-11-06T08:46:15.449Z,8.19
2022-11-06T08:48:47.558Z,8.27
2022-11-06T08:51:20.061Z,8.32
2022-11-06T08:53:52.409Z,8.41
2022-11-06T08:56:24.805Z,8.51
2022-11-06T08:58:57.208Z,8.56
2022-11-06T09:01:29.580Z,8.63
2022-11-06T09:04:01.881Z,8.74
2022-11-06T09:06:34.194Z,8.88
2022-11-06T09:09:06.672Z,9.06
2022-11-06T09:11:38.813Z,9.13
2022-11-06T09:14:11.062Z,9.21
2022-11-06T09:16:43.314Z,9.34
2022-11-06T09:19:15.500Z,9.42
2022-11-06T09:21:53.443Z,9.51
2022-11-06T09:24:49.744Z,9.55
2022-11-06T09:27:19.296Z,9.55
2022-11-06T09:29:51.538Z,9.54
2022-11-06T09:32:24.195Z,9.59
2022-11-06T09:34:56.411Z,9.73
2022-11-06T09:37:28.673Z,9.85
2022-11-06T09:40:06.095Z,9.96
2022-11-06T09:42:50.352Z,10.04
2022-11-06T09:45:24.721Z,10.10
2022-11-06T09:48:01.997Z,10.17
2022-11-06T09:50:38.890Z,10.21
2022-11-06T09:53:18.498Z,10.26
2022-11-06T09:55:52.397Z,10.28
2022-11-06T09:58:30.350Z,10.35
2022-11-06T10:01:08.007Z,10.48
2022-11-06T10:03:45.192Z,10.67
2022-11-06T10:06:24.947Z,10.77
2022-11-06T10:09:01.115Z,10.82
2022-11-06T10:11:51.662Z,10.86
2022-11-06T10:14:37.520Z,10.91
2022-11-06T10:17:18.776Z,10.95
2022-11-06T10:19:57.396Z,11.00
2022-11-06T10:22:37.026Z,10.99
2022-11-06T10:25:22.143Z,11.00
2022-11-06T10:28:02.434Z,11.04
2022-11-06T10:30:46.389Z,11.09
2022-11-06T10:33:35.762Z,11.22
2022-11-06T10:36:11.075Z,11.34
2022-11-06T10:38:47.863Z,11.40
2022-11-06T10:41:23.938Z,11.44
2022-11-06T10:44:00.617Z,11.47
2022-11-06T10:46:38.135Z,11.53
2022-11-06T10:49:21.693Z,11.55
2022-11-06T10:52:06.277Z,11.55
2022-11-06T10:54:56.981Z,11.62
2022-11-06T10:57:38.468Z,11.59
2022-11-06T11:00:15.762Z,11.50
2022-11-06T11:02:50.764Z,11.39
2022-11-06T11:05:22.089Z,11.25
2022-11-06T11:07:55.407Z,11.10
2022-11-06T11:10:33.444Z,10.98
2022-11-06T11:13:08.984Z,10.93
2022-11-06T11:15:47.787Z,10.93
2022-11-06T11:18:24.235Z,10.92
2022-11-06T11:21:09.386Z,10.94
2022-11-06T11:23:40.264Z,10.96
2022-11-06T11:26:27.710Z,10.99
2022-11-06T11:29:02.386Z,11.03
2022-11-06T11:31:36.384Z,11.09
2022-11-06T11:34:18.530Z,11.15
2022-11-06T11:36:58.265Z,11.22
2022-11-06T11:39:33.978Z,11.28
2022-11-06T11:42:27.006Z,11.32
2022-11-06T11:45:21.152Z,11.35
2022-11-06T11:48:09.977Z,11.38
2022-11-06T11:50:42.299Z,11.40
2022-11-06T11:53:20.947Z,11.44
2022-11-06T11:55:54.418Z,11.46
2022-11-06T11:58:30.457Z,11.55
2022-11-06T12:01:07.663Z,11.63
2022-11-06T12:03:44.928Z,11.67
2022-11-06T12:06:19.604Z,11.68
2022-11-06T12:08:55.687Z,11.73
2022-11-06T12:11:30.905Z,11.75
2022-11-06T12:14:36.403Z,11.71
2022-11-06T12:17:23.340Z,11.72
2022-11-06T12:19:59.332Z,12.12
2022-11-06T12:22:36.274Z,12.61
2022-11-06T12:25:16.366Z,13.04
2022-11-06T12:27:52.544Z,13.31
2022-11-06T12:30:25.027Z,13.18
2022-11-06T12:33:05.896Z,12.92
2022-11-06T12:35:42.617Z,12.70
2022-11-06T12:38:28.457Z,12.44
2022-11-06T12:41:06.206Z,12.22
2022-11-06T12:43:43.906Z,12.05
2022-11-06T12:46:37.755Z,11.88
2022-11-06T12:49:42.622Z,11.77
2022-11-06T12:52:30.146Z,11.72
2022-11-06T12:55:16.698Z,11.68
2022-11-06T12:58:05.686Z,11.65
2022-11-06T13:00:48.230Z,11.60
2022-11-06T13:03:42.933Z,11.58
2022-11-06T13:06:20.568Z,11.54
2022-11-06T13:09:02.078Z,11.48
2022-11-06T13:11:45.689Z,11.45
2022-11-06T13:14:27.256Z,11.43
2022-11-06T13:17:07.384Z,11.45
2022-11-06T13:19:48.461Z,11.43
2022-11-06T13:22:30.816Z,11.35
2022-11-06T13:25:15.324Z,11.26
2022-11-06T13:27:53.046Z,11.23
2022-11-06T13:30:26.116Z,11.21
2022-11-06T13:33:06.372Z,11.18
2022-11-06T13:35:43.249Z,11.13
2022-11-06T13:38:19.928Z,11.06
2022-11-06T13:41:02.183Z,11.00
2022-11-06T13:43:38.836Z,10.92
2022-11-06T13:46:22.425Z,10.86
2022-11-06T13:49:03.542Z,10.80
2022-11-06T13:51:44.634Z,10.77
2022-11-06T13:54:25.920Z,10.78
2022-11-06T13:57:40.947Z,10.76
2022-11-06T14:00:22.437Z,10.71
2022-11-06T14:03:28.267Z,10.64
2022-11-06T14:06:01.645Z,10.58
2022-11-06T14:08:41.848Z,10.54
2022-11-06T14:11:17.722Z,10.49
2022-11-06T14:14:03.000Z,10.43
2022-11-06T14:16:38.351Z,10.36
2022-11-06T14:19:15.739Z,10.29
2022-11-06T14:21:51.282Z,10.23
2022-11-06T14:24:40.961Z,10.19
2022-11-06T14:27:56.059Z,10.23
2022-11-06T14:31:11.108Z,10.20
2022-11-06T14:34:01.200Z,10.14
2022-11-06T14:36:36.405Z,10.07
2022-11-06T14:39:14.574Z,10.03
2022-11-06T14:42:01.282Z,9.99
2022-11-06T14:44:50.807Z,9.92
2022-11-06T14:47:32.265Z,9.85
2022-11-06T14:50:24.402Z,9.81
2022-11-06T14:53:01.613Z,9.79
2022-11-06T14:55:39.695Z,9.73
2022-11-06T14:58:23.870Z,9.69
2022-11-06T15:00:58.146Z,9.69
2022-11-06T15:03:35.787Z,9.62
2022-11-06T15:06:36.164Z,9.59
2022-11-06T15:09:12.942Z,9.60
2022-11-06T15:11:57.534Z,9.60
2022-11-06T15:15:06.932Z,9.61
2022-11-06T15:17:41.110Z,9.58
2022-11-06T15:20:27.100Z,9.53
2022-11-06T15:23:08.053Z,9.51
2022-11-06T15:25:47.285Z,9.48
2022-11-06T15:28:23.295Z,9.41
2022-11-06T15:31:01.219Z,9.33
2022-11-06T15:33:38.097Z,9.34
2022-11-06T15:36:14.797Z,9.39
2022-11-06T15:38:47.282Z,9.34
2022-11-06T15:41:23.589Z,9.32
2022-11-06T15:43:57.804Z,9.31
2022-11-06T15:46:31.073Z,9.27
2022-11-06T15:49:19.626Z,9.19
2022-11-06T15:51:57.507Z,9.13
2022-11-06T15:54:38.537Z,9.07
2022-11-06T15:57:18.634Z,9.02
2022-11-06T15:59:51.163Z,8.97
2022-11-06T16:02:24.528Z,8.93
2022-11-06T16:04:56.983Z,8.87
2022-11-06T16:07:29.541Z,8.82
2022-11-06T16:10:01.856Z,8.80
2022-11-06T16:12:34.382Z,8.87
2022-11-06T16:15:07.563Z,8.89
2022-11-06T16:17:44.009Z,8.90
2022-11-06T16:20:18.516Z,8.90
2022-11-06T16:22:50.709Z,8.92
2022-11-06T16:25:23.004Z,8.90
2022-11-06T16:27:55.250Z,8.83
2022-11-06T16:30:27.752Z,8.74
2022-11-06T16:33:00.047Z,8.65
2022-11-06T16:35:37.801Z,8.58
2022-11-06T16:38:46.640Z,8.56
2022-11-06T16:41:37.992Z,8.53
2022-11-06T16:44:45.369Z,8.52
2022-11-06T16:47:19.316Z,8.59
2022-11-06T16:49:54.474Z,8.62
2022-11-06T16:52:30.035Z,8.61
2022-11-06T16:55:05.644Z,8.61
2022-11-06T16:57:45.046Z,8.59
2022-11-06T17:00:27.457Z,8.56
2022-11-06T17:03:02.391Z,8.55
2022-11-06T17:05:36.884Z,8.53
2022-11-06T17:08:22.370Z,8.50
2022-11-06T17:10:55.452Z,8.43
2022-11-06T17:13:29.989Z,8.37
2022-11-06T17:16:03.701Z,8.34
2022-11-06T17:18:37.771Z,8.33
2022-11-06T17:21:15.465Z,8.35
2022-11-06T17:23:48.940Z,8.37
2022-11-06T17:26:24.128Z,8.39
2022-11-06T17:28:57.630Z,8.41
2022-11-06T17:31:30.697Z,8.38
2022-11-06T17:34:02.811Z,8.29
2022-11-06T17:36:35.490Z,8.24
2022-11-06T17:39:08.898Z,8.24
2022-11-06T17:41:41.467Z,8.22
2022-11-06T17:44:15.629Z,8.17
2022-11-06T17:46:48.694Z,8.14
2022-11-06T17:49:20.913Z,8.14
2022-11-06T17:52:00.246Z,8.18
2022-11-06T17:54:37.162Z,8.15
2022-11-06T17:57:10.420Z,8.17
2022-11-06T17:59:42.610Z,8.18
2022-11-06T18:02:29.781Z,8.15
2022-11-06T18:05:10.169Z,8.11
2022-11-06T18:07:42.367Z,8.10
2022-11-06T18:10:14.484Z,8.07
2022-11-06T18:12:51.340Z,8.05
2022-11-06T18:15:23.556Z,7.98
2022-11-06T18:17:55.740Z,7.93
2022-11-06T18:20:27.918Z,7.93
2022-11-06T18:23:00.005Z,8.00
2022-11-06T18:25:32.181Z,7.99
2022-11-06T18:28:04.449Z,7.99
2022-11-06T18:30:38.275Z,8.02
2022-11-06T18:33:10.380Z,8.02
2022-11-06T18:35:42.618Z,7.98
2022-11-06T18:38:16.136Z,7.96
2022-11-06T18:40:51.630Z,7.94
2022-11-06T18:43:24.872Z,7.89
2022-11-06T18:45:57.101Z,7.85
2022-11-06T18:48:29.295Z,7.79
2022-11-06T18:51:07.909Z,7.77
2022-11-06T18:53:41.147Z,7.77
2022-11-06T18:56:14.659Z,7.77
2022-11-06T18:58:47.209Z,7.78
2022-11-06T19:01:20.595Z,7.83
2022-11-06T19:03:53.004Z,7.86
2022-11-06T19:06:25.307Z,7.86
2022-11-06T19:08:57.496Z,7.83
2022-11-06T19:11:29.773Z,7.78
2022-11-06T19:14:01.972Z,7.75
2022-11-06T19:16:34.666Z,7.71
2022-11-06T19:19:08.229Z,7.65
2022-11-06T19:21:46.125Z,7.60
2022-11-06T19:24:19.184Z,7.59
2022-11-06T19:26:51.533Z,7.56
2022-11-06T19:29:23.980Z,7.50
2022-11-06T19:32:01.603Z,7.46
2022-11-06T19:34:38.899Z,7.41
2022-11-06T19:37:11.522Z,7.40
2022-11-06T19:39:43.687Z,7.35
2022-11-06T19:42:15.854Z,7.28
2022-11-06T19:44:47.998Z,7.24
2022-11-06T19:47:20.140Z,7.18
2022-11-06T19:49:52.251Z,7.19
2022-11-06T19:52:42.261Z,7.17
2022-11-06T19:55:26.696Z,7.15
2022-11-06T19:58:01.581Z,7.14
2022-11-06T20:00:33.738Z,7.15
2022-11-06T20:03:06.105Z,7.11
2022-11-06T20:05:39.519Z,7.10
2022-11-06T20:08:12.151Z,7.08
2022-11-06T20:10:44.372Z,7.07
2022-11-06T20:13:16.854Z,7.05
2022-11-06T20:15:49.447Z,7.12
2022-11-06T20:18:21.667Z,7.16
2022-11-06T20:20:53.808Z,7.22
2022-11-06T20:23:26.041Z,7.25
2022-11-06T20:25:58.762Z,7.25
2022-11-06T20:28:31.624Z,7.20
2022-11-06T20:31:08.506Z,7.14
2022-11-06T20:33:41.106Z,7.11
2022-11-06T20:36:15.496Z,7.11
2022-11-06T20:38:48.132Z,7.08
2022-11-06T20:41:20.729Z,7.10
2022-11-06T20:43:54.131Z,7.09
2022-11-06T20:46:27.342Z,7.08
2022-11-06T20:48:59.616Z,7.05
2022-11-06T20:51:42.972Z,7.05
2022-11-06T20:54:20.821Z,7.02
2022-11-06T20:56:53.014Z,7.02
2022-11-06T20:59:25.524Z,7.05
2022-11-06T21:01:57.857Z,7.07
2022-11-06T21:04:30.212Z,7.08
2022-11-06T21:07:02.488Z,7.07
2022-11-06T21:09:34.621Z,7.08
2022-11-06T21:12:09.070Z,7.06
2022-11-06T21:14:41.496Z,7.05
2022-11-06T21:17:13.713Z,7.01
2022-11-06T21:19:45.891Z,6.98
2022-11-06T21:22:18.127Z,6.94
2022-11-06T21:24:50.450Z,6.94
2022-11-06T21:27:22.719Z,6.96
2022-11-06T21:29:56.028Z,6.95
2022-11-06T21:32:28.362Z,6.94
2022-11-06T21:35:00.582Z,6.94
2022-11-06T21:37:34.437Z,7.02
2022-11-06T21:40:08.293Z,7.01
2022-11-06T21:42:40.696Z,7.04
2022-11-06T21:45:14.926Z,7.03
2022-11-06T21:47:47.771Z,7.02
2022-11-06T21:50:28.259Z,6.98
2022-11-06T21:53:19.736Z,6.93
2022-11-06T21:56:02.023Z,6.90
2022-11-06T21:58:34.748Z,6.86
2022-11-06T22:01:08.104Z,6.81
2022-11-06T22:03:41.441Z,6.76
2022-11-06T22:06:15.906Z,6.73
2022-11-06T22:08:49.493Z,6.77
2022-11-06T22:11:23.749Z,6.73
2022-11-06T22:13:57.304Z,6.72
2022-11-06T22:16:31.573Z,6.74
2022-11-06T22:19:04.679Z,6.70
2022-11-06T22:21:39.169Z,6.65
2022-11-06T22:24:14.249Z,6.64
2022-11-06T22:26:46.460Z,6.60
2022-11-06T22:29:18.733Z,6.55
2022-11-06T22:31:52.379Z,6.53
2022-11-06T22:34:24.616Z,6.49
2022-11-06T22:36:56.874Z,6.52
2022-11-06T22:39:29.125Z,6.49
2022-11-06T22:42:01.446Z,6.45
2022-11-06T22:44:36.550Z,6.46
2022-11-06T22:47:09.287Z,6.46
2022-11-06T22:49:41.453Z,6.44
2022-11-06T22:52:13.599Z,6.38
2022-11-06T22:54:45.841Z,6.33
2022-11-06T22:57:18.096Z,6.29
2022-11-06T22:59:50.153Z,6.29
2022-11-06T23:02:22.500Z,6.31
2022-11-06T23:04:54.821Z,6.40
2022-11-06T23:07:27.041Z,6.41
2022-11-06T23:09:59.261Z,6.42
2022-11-06T23:12:31.478Z,6.47
2022-11-06T23:15:03.905Z,6.49
2022-11-06T23:17:38.498Z,6.50
2022-11-06T23:20:13.026Z,6.47
2022-11-06T23:22:45.348Z,6.51
2022-11-06T23:25:20.102Z,6.51
2022-11-06T23:27:52.372Z,6.51
2022-11-06T23:30:24.646Z,6.49
2022-11-06T23:32:57.653Z,6.53
2022-11-06T23:35:32.676Z,6.63
2022-11-06T23:38:05.271Z,6.66
2022-11-06T23:40:37.489Z,6.67
2022-11-06T23:43:09.719Z,6.66
2022-11-06T23:45:51.650Z,6.69
2022-11-06T23:48:24.265Z,6.71
2022-11-06T23:50:56.582Z,6.71
2022-11-06T23:53:28.784Z,6.65
2022-11-06T23:56:05.629Z,6.57
2022-11-06T23:58:38.876Z,6.53
